createdAt,value
2019-05-07T00:02:10.825Z,945.99
2019-05-07T00:04:37.146Z,945.97
2019-05-07T00:07:03.452Z,946.04
2019-05-07T00:09:32.131Z,945.98
2019-05-07T00:11:56.093Z,945.96
2019-05-07T00:14:23.067Z,946.00
2019-05-07T00:16:48.756Z,945.93
2019-05-07T00:19:15.087Z,945.96
2019-05-07T00:21:42.285Z,945.92
2019-05-07T00:24:07.710Z,945.95
2019-05-07T00:26:34.037Z,945.87
2019-05-07T00:29:02.242Z,945.93
2019-05-07T00:31:26.660Z,945.92
2019-05-07T00:33:53.010Z,946.02
2019-05-07T00:36:19.308Z,945.92
2019-05-07T00:38:45.637Z,945.98
2019-05-07T00:41:12.359Z,945.96
2019-05-07T00:43:38.261Z,946.02
2019-05-07T00:46:04.590Z,946.06
2019-05-07T00:48:32.814Z,946.07
2019-05-07T00:50:57.223Z,946.09
2019-05-07T00:53:23.795Z,946.09
2019-05-07T00:55:49.859Z,946.08
2019-05-07T00:58:16.162Z,946.04
2019-05-07T01:00:42.491Z,946.05
2019-05-07T01:03:08.898Z,946.07
2019-05-07T01:05:35.196Z,946.14
2019-05-07T01:08:02.595Z,946.11
2019-05-07T01:10:27.843Z,946.10
2019-05-07T01:12:54.165Z,946.07
2019-05-07T01:15:28.814Z,946.06
2019-05-07T01:17:46.816Z,946.07
2019-05-07T01:20:13.133Z,946.03
2019-05-07T01:22:39.438Z,946.17
2019-05-07T01:25:05.776Z,946.12
2019-05-07T01:27:32.270Z,946.14
2019-05-07T01:29:58.405Z,946.13
2019-05-07T01:32:24.713Z,946.11
2019-05-07T01:34:52.484Z,946.24
2019-05-07T01:37:17.345Z,946.31
2019-05-07T01:39:43.647Z,946.28
2019-05-07T01:42:09.974Z,946.36
2019-05-07T01:44:36.274Z,946.27
2019-05-07T01:47:02.773Z,946.33
2019-05-07T01:49:28.927Z,946.40
2019-05-07T01:51:55.238Z,946.44
2019-05-07T01:54:23.490Z,946.42
2019-05-07T01:56:47.883Z,946.43
2019-05-07T01:59:14.187Z,946.45
2019-05-07T02:01:42.718Z,946.40
2019-05-07T02:04:06.815Z,946.43
2019-05-07T02:06:33.147Z,946.42
2019-05-07T02:08:59.451Z,946.47
2019-05-07T02:11:25.774Z,946.51
2019-05-07T02:13:52.966Z,946.45
2019-05-07T02:16:18.416Z,946.58
2019-05-07T02:18:44.733Z,946.58
2019-05-07T02:21:12.931Z,946.60
2019-05-07T02:23:37.359Z,946.62
2019-05-07T02:26:03.659Z,946.57
2019-05-07T02:28:29.987Z,946.65
2019-05-07T02:30:56.294Z,946.65
2019-05-07T02:33:23.104Z,946.63
2019-05-07T02:35:48.938Z,946.69
2019-05-07T02:38:15.240Z,946.60
2019-05-07T02:40:43.292Z,946.68
2019-05-07T02:43:07.856Z,946.66
2019-05-07T02:45:34.177Z,946.64
2019-05-07T02:48:03.258Z,946.68
2019-05-07T02:50:26.864Z,946.72
2019-05-07T02:52:53.833Z,946.72
2019-05-07T02:55:19.511Z,946.66
2019-05-07T02:57:45.840Z,946.64
2019-05-07T03:00:14.612Z,946.61
2019-05-07T03:02:38.480Z,946.63
2019-05-07T03:05:05.392Z,946.70
2019-05-07T03:07:33.488Z,946.77
2019-05-07T03:09:57.426Z,946.80
2019-05-07T03:12:23.976Z,946.85
2019-05-07T03:14:53.363Z,946.85
2019-05-07T03:17:16.371Z,946.79
2019-05-07T03:19:43.119Z,946.76
2019-05-07T03:22:09.004Z,946.85
2019-05-07T03:24:35.310Z,946.77
2019-05-07T03:27:03.207Z,946.82
2019-05-07T03:29:27.943Z,946.77
2019-05-07T03:31:56.103Z,946.94
2019-05-07T03:34:25.127Z,946.94
2019-05-07T03:36:48.560Z,947.00
2019-05-07T03:39:14.515Z,947.04
2019-05-07T03:41:39.513Z,947.09
2019-05-07T03:44:05.844Z,947.03
2019-05-07T03:46:33.681Z,947.08
2019-05-07T03:48:58.471Z,947.05
2019-05-07T03:51:24.782Z,947.14
2019-05-07T03:53:53.447Z,947.10
2019-05-07T03:56:17.426Z,947.24
2019-05-07T03:58:43.872Z,947.23
2019-05-07T04:01:13.159Z,947.33
2019-05-07T04:03:36.365Z,947.35
2019-05-07T04:06:03.826Z,947.26
2019-05-07T04:08:28.988Z,947.18
2019-05-07T04:10:55.315Z,947.21
2019-05-07T04:13:24.039Z,947.24
2019-05-07T04:15:47.932Z,947.22
2019-05-07T04:18:14.271Z,947.26
2019-05-07T04:20:43.527Z,947.30
2019-05-07T04:23:06.935Z,947.30
2019-05-07T04:25:34.708Z,947.36
2019-05-07T04:27:59.553Z,947.36
2019-05-07T04:30:25.884Z,947.38
2019-05-07T04:32:53.052Z,947.39
2019-05-07T04:35:18.513Z,947.40
2019-05-07T04:37:44.828Z,947.37
2019-05-07T04:40:13.484Z,947.49
2019-05-07T04:42:37.465Z,947.41
2019-05-07T04:45:04.471Z,947.52
2019-05-07T04:47:38.731Z,947.43
2019-05-07T04:49:56.405Z,947.45
2019-05-07T04:52:23.869Z,947.46
2019-05-07T04:54:49.062Z,947.55
2019-05-07T04:57:15.374Z,947.47
2019-05-07T04:59:42.905Z,947.58
2019-05-07T05:02:08.011Z,947.46
2019-05-07T05:04:35.091Z,947.58
2019-05-07T05:07:02.617Z,947.62
2019-05-07T05:09:26.973Z,947.64
2019-05-07T05:11:53.280Z,947.67
2019-05-07T05:14:22.589Z,947.65
2019-05-07T05:16:45.900Z,947.71
2019-05-07T05:19:12.676Z,947.74
2019-05-07T05:21:38.624Z,947.70
2019-05-07T05:24:04.944Z,947.61
2019-05-07T05:26:32.506Z,947.75
2019-05-07T05:28:57.579Z,947.78
2019-05-07T05:31:23.887Z,947.68
2019-05-07T05:33:52.455Z,947.60
2019-05-07T05:36:16.513Z,947.75
2019-05-07T05:38:42.822Z,947.80
2019-05-07T05:41:09.148Z,947.82
2019-05-07T05:43:35.474Z,947.88
2019-05-07T05:46:02.732Z,947.85
2019-05-07T05:48:28.103Z,947.89
2019-05-07T05:50:54.405Z,947.83
2019-05-07T05:53:21.861Z,947.95
2019-05-07T05:55:47.029Z,947.89
2019-05-07T05:58:13.333Z,947.89
2019-05-07T06:00:42.157Z,947.95
2019-05-07T06:03:06.048Z,948.00
2019-05-07T06:05:34.324Z,947.94
2019-05-07T06:07:58.685Z,948.06
2019-05-07T06:10:25.020Z,948.01
2019-05-07T06:12:52.255Z,947.90
2019-05-07T06:15:17.675Z,948.07
2019-05-07T06:17:44.068Z,948.04
2019-05-07T06:20:12.147Z,948.02
2019-05-07T06:22:36.699Z,948.20
2019-05-07T06:25:03.051Z,948.13
2019-05-07T06:27:29.362Z,948.13
2019-05-07T06:29:55.668Z,948.17
2019-05-07T06:32:22.923Z,948.13
2019-05-07T06:34:48.360Z,948.15
2019-05-07T06:38:53.188Z,948.22
2019-05-07T06:41:18.990Z,948.16
2019-05-07T06:43:45.325Z,948.11
2019-05-07T06:46:12.533Z,948.12
2019-05-07T06:48:42.852Z,948.15
2019-05-07T06:51:04.266Z,948.23
2019-05-07T06:53:32.990Z,948.12
2019-05-07T06:55:56.875Z,948.08
2019-05-07T06:58:23.183Z,948.01
2019-05-07T07:00:49.517Z,948.17
2019-05-07T07:03:15.819Z,948.04
2019-05-07T07:05:42.613Z,947.93
2019-05-07T07:08:08.427Z,948.10
2019-05-07T07:10:34.732Z,948.11
2019-05-07T07:13:02.398Z,948.17
2019-05-07T07:15:27.342Z,948.04
2019-05-07T07:17:53.643Z,948.18
2019-05-07T07:20:21.898Z,948.14
2019-05-07T07:22:46.253Z,948.20
2019-05-07T07:25:12.568Z,948.23
2019-05-07T07:27:38.878Z,948.29
2019-05-07T07:30:05.194Z,948.17
2019-05-07T07:32:31.820Z,948.31
2019-05-07T07:34:57.930Z,948.28
2019-05-07T07:37:24.237Z,948.31
2019-05-07T07:39:52.427Z,948.38
2019-05-07T07:42:16.937Z,948.33
2019-05-07T07:44:43.266Z,948.38
2019-05-07T07:47:09.569Z,948.45
2019-05-07T07:49:35.870Z,948.37
2019-05-07T07:52:03.157Z,948.39
2019-05-07T07:54:28.556Z,948.44
2019-05-07T07:56:56.622Z,948.43
2019-05-07T07:59:22.149Z,948.39
2019-05-07T08:01:47.480Z,948.41
2019-05-07T08:04:13.792Z,948.40
2019-05-07T08:06:42.072Z,948.55
2019-05-07T08:09:06.400Z,948.62
2019-05-07T08:11:33.740Z,948.64
2019-05-07T08:14:02.213Z,948.65
2019-05-07T08:16:26.525Z,948.63
2019-05-07T08:18:53.368Z,948.62
2019-05-07T08:21:19.679Z,948.67
2019-05-07T08:23:46.047Z,948.68
2019-05-07T08:26:12.702Z,948.71
2019-05-07T08:28:38.656Z,948.65
2019-05-07T08:31:04.964Z,948.68
2019-05-07T08:33:32.246Z,948.55
2019-05-07T08:35:57.576Z,948.64
2019-05-07T08:38:23.930Z,948.75
2019-05-07T08:40:51.989Z,948.73
2019-05-07T08:43:16.556Z,948.55
2019-05-07T08:45:43.255Z,948.70
2019-05-07T08:48:09.248Z,948.75
2019-05-07T08:50:35.660Z,948.69
2019-05-07T08:53:02.757Z,948.73
2019-05-07T08:55:28.281Z,948.71
2019-05-07T08:57:54.611Z,948.69
2019-05-07T09:00:22.367Z,948.75
2019-05-07T09:02:47.200Z,948.76
2019-05-07T09:05:13.511Z,948.81
2019-05-07T09:07:39.813Z,948.78
2019-05-07T09:10:06.119Z,948.75
2019-05-07T09:12:32.428Z,948.94
2019-05-07T09:14:58.732Z,948.79
2019-05-07T09:17:25.055Z,948.86
2019-05-07T09:19:54.492Z,948.88
2019-05-07T09:22:17.664Z,948.84
2019-05-07T09:24:43.968Z,948.82
2019-05-07T09:27:12.048Z,948.83
2019-05-07T09:29:36.584Z,948.84
2019-05-07T09:32:03.074Z,948.72
2019-05-07T09:34:29.196Z,948.85
2019-05-07T09:36:55.543Z,948.90
2019-05-07T09:39:22.143Z,948.92
2019-05-07T09:41:48.128Z,948.78
2019-05-07T09:44:14.436Z,948.81
2019-05-07T09:46:42.908Z,949.07
2019-05-07T09:49:07.056Z,948.88
2019-05-07T09:51:33.380Z,948.94
2019-05-07T09:53:59.674Z,948.93
2019-05-07T09:56:25.981Z,949.26
2019-05-07T09:58:53.032Z,948.99
2019-05-07T10:01:18.665Z,949.04
2019-05-07T10:03:44.972Z,949.19
2019-05-07T10:06:12.454Z,949.17
2019-05-07T10:08:37.593Z,949.18
2019-05-07T10:11:03.905Z,949.11
2019-05-07T10:13:30.203Z,949.12
2019-05-07T10:15:56.521Z,949.10
2019-05-07T10:18:22.961Z,949.09
2019-05-07T10:20:49.132Z,949.00
2019-05-07T10:23:15.440Z,949.14
2019-05-07T10:25:41.785Z,949.17
2019-05-07T10:28:08.132Z,949.24
2019-05-07T10:30:34.409Z,949.28
2019-05-07T10:33:01.775Z,949.14
2019-05-07T10:35:27.030Z,949.32
2019-05-07T10:37:53.361Z,949.23
2019-05-07T10:40:19.678Z,949.28
2019-05-07T10:42:45.989Z,949.25
2019-05-07T10:45:13.056Z,949.38
2019-05-07T10:47:38.628Z,949.37
2019-05-07T10:50:04.952Z,949.35
2019-05-07T10:52:31.912Z,949.34
2019-05-07T10:54:59.958Z,949.44
2019-05-07T10:57:23.888Z,949.45
2019-05-07T10:59:52.250Z,949.45
2019-05-07T11:02:16.521Z,949.41
2019-05-07T11:04:45.740Z,949.52
2019-05-07T11:07:09.155Z,949.50
2019-05-07T11:09:35.475Z,949.72
2019-05-07T11:12:02.619Z,949.60
2019-05-07T11:14:28.098Z,949.54
2019-05-07T11:16:54.422Z,949.67
2019-05-07T11:19:22.103Z,949.76
2019-05-07T11:21:47.043Z,949.67
2019-05-07T11:24:13.338Z,949.78
2019-05-07T11:26:41.506Z,949.86
2019-05-07T11:29:05.992Z,949.78
2019-05-07T11:31:33.174Z,949.79
2019-05-07T11:33:58.625Z,949.96
2019-05-07T11:36:24.945Z,949.95
2019-05-07T11:38:52.702Z,949.93
2019-05-07T11:41:17.577Z,949.95
2019-05-07T11:43:43.910Z,950.04
2019-05-07T11:46:10.209Z,950.12
2019-05-07T11:48:36.563Z,949.86
2019-05-07T11:51:04.294Z,949.75
2019-05-07T11:53:29.170Z,950.08
2019-05-07T11:55:55.499Z,950.08
2019-05-07T11:58:22.081Z,950.19
2019-05-07T12:00:48.130Z,950.23
2019-05-07T12:03:14.437Z,950.02
2019-05-07T12:05:42.304Z,950.05
2019-05-07T12:08:07.071Z,950.10
2019-05-07T12:10:33.420Z,950.14
2019-05-07T12:13:02.174Z,950.10
2019-05-07T12:15:26.081Z,950.11
2019-05-07T12:17:52.400Z,950.10
2019-05-07T12:20:18.708Z,950.19
2019-05-07T12:22:45.053Z,949.97
2019-05-07T12:25:12.153Z,950.21
2019-05-07T12:27:37.664Z,950.27
2019-05-07T12:30:03.986Z,950.22
2019-05-07T12:32:32.251Z,950.28
2019-05-07T12:34:56.622Z,950.19
2019-05-07T12:37:22.947Z,950.31
2019-05-07T12:39:49.247Z,950.20
2019-05-07T12:42:15.581Z,950.17
2019-05-07T12:44:42.473Z,950.26
2019-05-07T12:47:08.219Z,950.05
2019-05-07T12:49:34.524Z,950.24
2019-05-07T12:52:02.300Z,950.20
2019-05-07T12:54:27.163Z,950.37
2019-05-07T12:56:53.473Z,950.36
2019-05-07T12:59:21.715Z,950.46
2019-05-07T13:01:46.103Z,950.46
2019-05-07T13:04:12.509Z,950.44
2019-05-07T13:06:38.790Z,950.37
2019-05-07T13:09:05.122Z,950.43
2019-05-07T13:11:32.573Z,950.58
2019-05-07T13:13:57.755Z,950.44
2019-05-07T13:16:24.076Z,950.64
2019-05-07T13:18:52.449Z,950.59
2019-05-07T13:21:16.719Z,950.43
2019-05-07T13:23:43.024Z,950.63
2019-05-07T13:26:09.344Z,950.62
2019-05-07T13:28:35.648Z,950.75
2019-05-07T13:31:02.429Z,950.70
2019-05-07T13:33:28.334Z,950.79
2019-05-07T13:35:54.630Z,950.75
2019-05-07T13:38:23.476Z,950.81
2019-05-07T13:40:47.249Z,950.76
2019-05-07T13:43:13.577Z,950.76
2019-05-07T13:45:41.673Z,950.82
2019-05-07T13:48:06.205Z,950.74
2019-05-07T13:50:32.643Z,950.81
2019-05-07T13:52:58.845Z,950.74
2019-05-07T13:55:25.155Z,950.84
2019-05-07T13:57:52.423Z,950.83
2019-05-07T14:00:17.793Z,950.82
2019-05-07T14:02:44.128Z,950.87
2019-05-07T14:05:14.056Z,950.84
2019-05-07T14:07:36.760Z,950.94
2019-05-07T14:10:03.104Z,950.96
2019-05-07T14:12:29.431Z,950.95
2019-05-07T14:14:55.755Z,950.96
2019-05-07T14:17:22.073Z,950.83
2019-05-07T14:19:48.388Z,951.05
2019-05-07T14:22:18.683Z,951.08
2019-05-07T14:24:42.256Z,951.06
2019-05-07T14:27:07.314Z,951.02
2019-05-07T14:29:33.638Z,951.07
2019-05-07T14:32:02.152Z,951.16
2019-05-07T14:34:26.269Z,951.10
2019-05-07T14:36:52.597Z,951.19
2019-05-07T14:39:18.929Z,951.26
2019-05-07T14:41:45.236Z,951.28
2019-05-07T14:44:12.064Z,951.20
2019-05-07T14:46:47.260Z,951.27
2019-05-07T14:49:04.207Z,951.27
2019-05-07T14:51:32.394Z,951.26
2019-05-07T14:53:56.815Z,951.22
2019-05-07T14:56:23.282Z,951.27
2019-05-07T14:58:51.570Z,951.29
2019-05-07T15:01:15.795Z,951.35
2019-05-07T15:03:42.378Z,951.19
2019-05-07T15:06:08.424Z,951.27
2019-05-07T15:08:34.753Z,951.37
2019-05-07T15:11:02.736Z,951.40
2019-05-07T15:13:27.360Z,951.30
2019-05-07T15:15:53.757Z,951.45
2019-05-07T15:18:20.035Z,951.45
2019-05-07T15:20:46.411Z,951.38
2019-05-07T15:23:12.726Z,951.46
2019-05-07T15:25:39.089Z,951.44
2019-05-07T15:28:05.345Z,951.37
2019-05-07T15:30:32.458Z,951.42
2019-05-07T15:32:58.063Z,951.42
2019-05-07T15:35:24.378Z,951.39
2019-05-07T15:37:51.824Z,951.43
2019-05-07T15:40:17.022Z,951.50
2019-05-07T15:42:43.350Z,951.49
2019-05-07T15:45:09.675Z,951.47
2019-05-07T15:47:35.998Z,951.55
2019-05-07T15:50:02.305Z,951.55
2019-05-07T15:52:28.858Z,951.62
2019-05-07T15:54:55.196Z,951.60
2019-05-07T15:57:22.340Z,951.62
2019-05-07T15:59:47.826Z,951.61
2019-05-07T16:02:14.129Z,951.69
2019-05-07T16:04:40.456Z,951.66
2019-05-07T16:07:06.759Z,951.68
2019-05-07T16:09:33.089Z,951.78
2019-05-07T16:11:59.418Z,951.67
2019-05-07T16:14:26.707Z,951.67
2019-05-07T16:16:52.065Z,951.72
2019-05-07T16:19:18.374Z,951.81
2019-05-07T16:21:44.686Z,951.72
2019-05-07T16:24:12.115Z,951.81
2019-05-07T16:26:37.322Z,951.85
2019-05-07T16:29:04.720Z,951.82
2019-05-07T16:31:29.994Z,951.94
2019-05-07T16:33:56.309Z,951.95
2019-05-07T16:36:22.635Z,951.97
2019-05-07T16:38:48.945Z,951.98
2019-05-07T16:41:15.277Z,952.00
2019-05-07T16:43:42.909Z,951.96
2019-05-07T16:46:07.928Z,951.99
2019-05-07T16:48:34.235Z,952.01
2019-05-07T16:51:02.618Z,952.10
2019-05-07T16:53:30.264Z,952.12
2019-05-07T16:55:56.717Z,952.12
2019-05-07T16:58:23.467Z,952.13
2019-05-07T17:00:49.355Z,952.10
2019-05-07T17:03:15.692Z,952.11
2019-05-07T17:05:42.834Z,952.14
2019-05-07T17:08:08.322Z,952.18
2019-05-07T17:10:34.645Z,952.14
2019-05-07T17:13:02.836Z,952.15
2019-05-07T17:15:27.628Z,952.30
2019-05-07T17:17:53.947Z,952.24
2019-05-07T17:20:21.974Z,952.30
2019-05-07T17:22:46.570Z,952.29
2019-05-07T17:25:13.159Z,952.32
2019-05-07T17:27:39.288Z,952.34
2019-05-07T17:30:05.740Z,952.35
2019-05-07T17:32:32.225Z,952.33
2019-05-07T17:34:58.373Z,952.37
2019-05-07T17:37:24.718Z,952.36
2019-05-07T17:39:52.281Z,952.40
2019-05-07T17:42:17.540Z,952.47
2019-05-07T17:44:43.868Z,952.50
2019-05-07T17:47:12.636Z,952.51
2019-05-07T17:49:36.589Z,952.52
2019-05-07T17:52:03.031Z,952.54
2019-05-07T17:54:29.128Z,952.52
2019-05-07T17:56:55.503Z,952.54
2019-05-07T17:59:21.816Z,952.49
2019-05-07T18:01:50.105Z,952.59
2019-05-07T18:04:14.462Z,952.55
2019-05-07T18:06:42.673Z,952.57
2019-05-07T18:09:07.340Z,952.58
2019-05-07T18:11:33.696Z,952.69
2019-05-07T18:14:02.426Z,952.65
2019-05-07T18:16:26.434Z,952.70
2019-05-07T18:18:52.770Z,952.81
2019-05-07T18:21:19.121Z,952.72
2019-05-07T18:23:45.533Z,952.79
2019-05-07T18:26:16.421Z,952.81
2019-05-07T18:28:38.290Z,952.83
2019-05-07T18:31:04.656Z,952.77
2019-05-07T18:33:30.963Z,952.85
2019-05-07T18:35:57.315Z,952.83
2019-05-07T18:38:23.639Z,952.92
2019-05-07T18:40:49.974Z,952.89
2019-05-07T18:43:16.294Z,952.80
2019-05-07T18:45:42.631Z,952.90
2019-05-07T18:48:08.969Z,952.93
2019-05-07T18:50:35.279Z,952.82
2019-05-07T18:53:02.839Z,952.84
2019-05-07T18:55:28.021Z,952.90
2019-05-07T18:57:54.380Z,952.87
2019-05-07T19:00:22.111Z,952.92
2019-05-07T19:02:47.013Z,952.89
2019-05-07T19:05:13.379Z,952.99
2019-05-07T19:07:42.172Z,952.96
2019-05-07T19:10:08.446Z,952.93
2019-05-07T19:12:34.809Z,952.97
2019-05-07T19:15:02.937Z,953.01
2019-05-07T19:17:27.587Z,953.03
2019-05-07T19:19:53.884Z,952.98
2019-05-07T19:22:22.090Z,953.07
2019-05-07T19:24:48.139Z,952.96
2019-05-07T19:27:12.821Z,952.99
2019-05-07T19:29:42.331Z,953.03
2019-05-07T19:32:05.456Z,953.02
2019-05-07T19:34:32.453Z,952.95
2019-05-07T19:36:58.117Z,953.02
2019-05-07T19:39:24.716Z,953.11
2019-05-07T19:41:52.376Z,953.09
2019-05-07T19:44:17.352Z,953.06
2019-05-07T19:46:43.688Z,953.09
2019-05-07T19:49:10.053Z,953.09
2019-05-07T19:51:36.324Z,953.11
2019-05-07T19:54:02.652Z,953.11
2019-05-07T19:56:29.026Z,953.19
2019-05-07T19:58:55.355Z,953.15
2019-05-07T20:01:22.772Z,953.09
2019-05-07T20:03:48.012Z,953.17
2019-05-07T20:06:14.331Z,953.12
2019-05-07T20:08:40.643Z,953.18
2019-05-07T20:11:06.977Z,953.19
2019-05-07T20:13:33.281Z,953.09
2019-05-07T20:15:59.594Z,953.16
2019-05-07T20:18:25.917Z,953.09
2019-05-07T20:20:52.221Z,953.08
2019-05-07T20:23:18.556Z,953.17
2019-05-07T20:25:44.878Z,953.12
2019-05-07T20:28:12.694Z,953.12
2019-05-07T20:30:37.524Z,953.09
2019-05-07T20:33:03.861Z,953.08
2019-05-07T20:35:32.403Z,953.07
2019-05-07T20:37:56.499Z,953.12
2019-05-07T20:40:22.901Z,953.18
2019-05-07T20:42:49.230Z,953.09
2019-05-07T20:45:15.545Z,953.10
2019-05-07T20:47:42.241Z,953.12
2019-05-07T20:50:08.180Z,953.15
2019-05-07T20:52:34.515Z,953.16
2019-05-07T20:55:00.841Z,953.16
2019-05-07T20:57:27.208Z,953.11
2019-05-07T20:59:53.534Z,953.17
2019-05-07T21:02:19.870Z,953.11
2019-05-07T21:04:46.200Z,953.16
2019-05-07T21:07:12.506Z,953.05
2019-05-07T21:09:38.853Z,953.17
2019-05-07T21:12:05.157Z,953.23
2019-05-07T21:14:32.426Z,953.23
2019-05-07T21:16:57.959Z,953.19
2019-05-07T21:19:24.279Z,953.22
2019-05-07T21:21:50.599Z,953.23
2019-05-07T21:24:16.906Z,953.28
2019-05-07T21:26:43.277Z,953.18
2019-05-07T21:29:09.573Z,953.16
2019-05-07T21:31:35.989Z,953.17
2019-05-07T21:34:03.091Z,953.19
2019-05-07T21:36:28.619Z,953.17
2019-05-07T21:38:54.950Z,953.13
2019-05-07T21:41:22.762Z,953.16
2019-05-07T21:43:47.564Z,953.16
2019-05-07T21:46:13.890Z,953.14
2019-05-07T21:48:40.262Z,953.14
2019-05-07T21:51:06.653Z,953.24
2019-05-07T21:53:32.991Z,953.27
2019-05-07T21:56:02.539Z,953.28
2019-05-07T21:58:25.628Z,953.24
2019-05-07T22:00:52.064Z,953.22
2019-05-07T22:03:18.305Z,953.21
2019-05-07T22:05:44.621Z,953.24
2019-05-07T22:08:12.513Z,953.24
2019-05-07T22:10:37.247Z,953.15
2019-05-07T22:13:03.572Z,953.29
2019-05-07T22:15:31.839Z,953.23
2019-05-07T22:17:56.237Z,953.32
2019-05-07T22:20:22.548Z,953.27
2019-05-07T22:22:48.853Z,953.22
2019-05-07T22:25:15.189Z,953.20
2019-05-07T22:27:42.192Z,953.24
2019-05-07T22:30:07.858Z,953.29
2019-05-07T22:32:34.170Z,953.26
2019-05-07T22:35:02.612Z,953.25
2019-05-07T22:37:26.810Z,953.27
2019-05-07T22:39:53.141Z,953.24
2019-05-07T22:42:19.475Z,953.26
2019-05-07T22:44:45.776Z,953.29
2019-05-07T22:47:12.355Z,953.33
2019-05-07T22:49:38.414Z,953.38
2019-05-07T22:52:04.724Z,953.37
2019-05-07T22:54:31.932Z,953.26
2019-05-07T22:56:57.403Z,953.28
2019-05-07T22:59:23.725Z,953.18
2019-05-07T23:01:51.689Z,953.23
2019-05-07T23:04:16.373Z,953.19
2019-05-07T23:06:43.691Z,953.15
2019-05-07T23:09:09.011Z,953.23
2019-05-07T23:11:35.337Z,953.18
2019-05-07T23:14:02.608Z,953.21
2019-05-07T23:16:27.977Z,953.18
2019-05-07T23:18:54.281Z,953.17
2019-05-07T23:21:24.328Z,953.18
2019-05-07T23:23:46.921Z,953.15
2019-05-07T23:26:14.801Z,953.16
2019-05-07T23:28:41.714Z,953.15
2019-05-07T23:31:05.878Z,953.14
2019-05-07T23:33:32.294Z,953.20
2019-05-07T23:35:58.511Z,953.24
2019-05-07T23:38:24.842Z,953.20
2019-05-07T23:40:52.548Z,953.26
2019-05-07T23:43:17.467Z,953.23
2019-05-07T23:45:43.798Z,953.19
2019-05-07T23:48:12.196Z,953.13
2019-05-07T23:50:36.433Z,953.25
2019-05-07T23:53:02.741Z,953.24
2019-05-07T23:55:29.075Z,953.25
2019-05-07T23:57:55.376Z,953.27
